Time;durP1;ratioP1;P1;durP2;ratioP2;P2;SDS_P1;SDS_P2;PMS_P1;PMS_P2;Temp;Humidity;BMP_temperature;BMP_pressure;BME280_temperature;BME280_humidity;BME280_pressure;Samples;Min_cycle;Max_cycle;Signal;HPM_P1;HPM_P2
2023/04/01 00:01:49;;;;;;;62.10;9.60;;;;;;;-146.27;100.00;83145.59;5074552;28;20492;-68
2023/04/01 00:04:15;;;;;;;58.38;9.40;;;;;;;-146.27;100.00;83227.97;5081395;28;20081;-67
2023/04/01 00:06:40;;;;;;;68.38;10.02;;;;;;;-146.27;100.00;83244.03;5080845;28;20048;-67
2023/04/01 00:09:06;;;;;;;49.15;10.07;;;;;;;-146.27;100.00;83201.84;5081103;28;20143;-67
2023/04/01 00:11:32;;;;;;;65.80;10.45;;;;;;;-146.27;100.00;83195.81;5088115;28;20332;-67
2023/04/01 00:13:58;;;;;;;50.95;9.63;;;;;;;-146.27;100.00;83284.22;5089498;28;20039;-67
2023/04/01 00:16:23;;;;;;;49.92;7.53;;;;;;;-146.27;100.00;83201.84;5078053;28;20020;-69
2023/04/01 00:18:50;;;;;;;42.13;8.02;;;;;;;-146.27;100.00;83248.06;5085697;28;20016;-68
2023/04/01 00:21:15;;;;;;;36.17;7.50;;;;;;;-146.27;100.00;83205.88;5089474;28;20024;-69
2023/04/01 00:23:41;;;;;;;40.25;7.45;;;;;;;-146.27;100.00;83113.44;5082611;28;20477;-68
2023/04/01 00:26:07;;;;;;;29.63;5.85;;;;;;;-146.27;100.00;83175.72;5075294;28;20471;-69
2023/04/01 00:28:35;;;;;;;35.42;6.85;;;;;;;-146.27;100.00;83238.03;5084477;28;20028;-68
2023/04/01 00:31:07;;;;;;;31.88;5.32;;;;;;;-146.27;100.00;83167.69;5088897;28;20032;-69
2023/04/01 00:33:33;;;;;;;32.97;5.85;;;;;;;-146.27;100.00;83197.84;5090398;28;20024;-69
2023/04/01 00:36:16;;;;;;;25.70;4.50;;;;;;;-146.27;100.00;83268.16;5080160;28;20023;-69
2023/04/01 00:38:42;;;;;;;23.45;5.38;;;;;;;-146.27;100.00;83201.84;5084707;28;20027;-67
2023/04/01 00:41:10;;;;;;;24.40;5.68;;;;;;;-146.27;100.00;83201.84;5086007;28;20426;-67
2023/04/01 00:43:36;;;;;;;33.75;6.60;;;;;;;-146.27;100.00;83272.19;5081929;28;20020;-68
2023/04/01 00:46:01;;;;;;;29.75;5.75;;;;;;;-146.27;100.00;83244.03;5076941;28;20021;-68
2023/04/01 00:48:33;;;;;;;33.92;6.93;;;;;;;-146.27;100.00;83280.22;5076765;28;20021;-68
2023/04/01 00:51:11;;;;;;;37.97;7.80;;;;;;;-146.27;100.00;83360.59;5081648;28;20039;-68
2023/04/01 00:53:41;;;;;;;30.23;7.18;;;;;;;-146.27;100.00;83350.53;5082094;28;20142;-68
2023/04/01 00:56:11;;;;;;;38.35;9.27;;;;;;;-146.27;100.00;83252.09;5079849;28;20087;-68
2023/04/01 00:58:42;;;;;;;38.15;7.50;;;;;;;-146.27;100.00;83227.97;5082848;28;20440;-69
2023/04/01 01:01:09;;;;;;;36.53;8.55;;;;;;;-146.27;100.00;83252.09;5077093;28;20025;-69
2023/04/01 01:03:35;;;;;;;35.67;8.15;;;;;;;-146.27;100.00;83236.00;5089183;28;20024;-69
2023/04/01 01:06:16;;;;;;;40.47;7.97;;;;;;;-146.27;100.00;83207.88;5084686;28;20020;-68
2023/04/01 01:09:07;;;;;;;28.45;5.65;;;;;;;-146.27;100.00;83300.31;5082613;28;21501;-68
2023/04/01 01:11:47;;;;;;;42.60;6.45;;;;;;;-146.27;100.00;83280.22;5079092;28;20173;-68
2023/04/01 01:14:57;;;;;;;22.95;5.07;;;;;;;-146.27;100.00;83326.44;5083908;28;20036;-68
2023/04/01 01:17:35;;;;;;;29.75;5.40;;;;;;;-146.27;100.00;83256.09;5083502;28;20031;-69
2023/04/01 01:20:19;;;;;;;45.22;6.18;;;;;;;-146.27;100.00;83248.06;5075502;28;20518;-68
2023/04/01 01:22:52;;;;;;;26.88;5.68;;;;;;;-146.27;100.00;83276.19;5085816;28;20042;-68
2023/04/01 01:25:18;;;;;;;28.98;5.90;;;;;;;-146.27;100.00;83232.00;5093200;28;20048;-69
2023/04/01 01:27:52;;;;;;;24.35;7.60;;;;;;;-146.27;100.00;83268.16;5088278;28;20492;-68
2023/04/01 01:30:26;;;;;;;27.80;8.05;;;;;;;-146.27;100.00;83284.22;5083212;28;20099;-68
2023/04/01 01:32:57;;;;;;;;;;;;;;;-146.27;100.00;83286.25;5086787;28;20361;-68
2023/04/01 01:35:45;;;;;;;26.38;7.35;;;;;;;-146.27;100.00;83344.50;5081432;28;19912;-68
2023/04/01 01:38:15;;;;;;;39.53;8.93;;;;;;;-146.27;100.00;83340.50;5089244;28;20498;-68
2023/04/01 01:40:44;;;;;;;35.85;9.23;;;;;;;-146.27;100.00;83306.34;5094251;28;20031;-69
2023/04/01 01:43:14;;;;;;;44.90;9.93;;;;;;;-146.27;100.00;83296.28;5082160;28;20032;-68
2023/04/01 01:45:45;;;;;;;44.90;11.57;;;;;;;-146.27;100.00;83324.41;5086465;28;20133;-68
2023/04/01 01:48:11;;;;;;;43.05;10.02;;;;;;;-146.27;100.00;83328.44;5086146;28;20035;-69
2023/04/01 01:50:40;;;;;;;41.88;9.32;;;;;;;-146.27;100.00;83304.31;5088273;28;20569;-68
2023/04/01 01:53:08;;;;;;;39.05;8.15;;;;;;;-146.27;100.00;83348.53;5084851;28;20031;-69
2023/04/01 01:55:40;;;;;;;33.45;9.48;;;;;;;-146.27;100.00;83302.31;5094036;28;20025;-68
2023/04/01 01:58:28;;;;;;;34.38;8.45;;;;;;;-146.27;100.00;83376.66;5083244;28;20024;-67
2023/04/01 02:01:00;;;;;;;41.67;9.45;;;;;;;-146.27;100.00;83294.28;5078029;28;20079;-67
2023/04/01 02:03:29;;;;;;;40.53;10.00;;;;;;;-146.27;100.00;83280.22;5086908;28;20108;-68
2023/04/01 02:05:57;;;;;;;30.77;9.20;;;;;;;-146.27;100.00;83242.03;5084860;28;20378;-68
2023/04/01 02:08:30;;;;;;;48.35;10.50;;;;;;;-146.27;100.00;83298.28;5089121;28;20439;-68
2023/04/01 02:11:02;;;;;;;33.63;9.98;;;;;;;-146.27;100.00;83326.44;5080889;28;20029;-69
2023/04/01 02:13:40;;;;;;;49.55;11.05;;;;;;;-146.27;100.00;83310.34;5081577;28;20395;-69
2023/04/01 02:16:16;;;;;;;38.63;11.52;;;;;;;-146.27;100.00;83284.22;5089589;28;20494;-67
2023/04/01 02:18:44;;;;;;;49.28;11.05;;;;;;;-146.27;100.00;83284.22;5085534;28;20067;-67
2023/04/01 02:21:11;;;;;;;38.58;9.77;;;;;;;-146.27;100.00;83227.97;5096031;28;20073;-68
2023/04/01 02:23:37;;;;;;;45.40;11.80;;;;;;;-146.27;100.00;83290.25;5081635;28;20028;-68
2023/04/01 02:26:06;;;;;;;32.75;8.82;;;;;;;-146.27;100.00;83238.03;5085204;28;20024;-67
2023/04/01 02:28:34;;;;;;;26.88;9.68;;;;;;;-146.27;100.00;83312.34;5089680;28;20577;-68
2023/04/01 02:31:02;;;;;;;32.35;10.13;;;;;;;-146.27;100.00;83248.06;5083536;28;20070;-68
2023/04/01 02:33:28;;;;;;;29.73;9.15;;;;;;;-146.27;100.00;83207.88;5086431;28;20024;-68
2023/04/01 02:35:54;;;;;;;22.42;9.07;;;;;;;-146.27;100.00;83227.97;5075675;28;20047;-68
2023/04/01 02:38:19;;;;;;;37.42;11.05;;;;;;;-146.27;100.00;83308.34;5086567;28;20483;-68
2023/04/01 02:40:49;;;;;;;32.13;10.52;;;;;;;-146.27;100.00;83284.22;5087652;28;20020;-68
2023/04/01 02:43:16;;;;;;;41.17;11.15;;;;;;;-146.27;100.00;83229.97;5083231;28;20372;-68
2023/04/01 02:45:41;;;;;;;40.53;10.40;;;;;;;-146.27;100.00;83274.19;5083813;28;20024;-69
2023/04/01 02:48:06;;;;;;;43.67;11.52;;;;;;;-146.27;100.00;83264.13;5089441;28;20099;-68
2023/04/01 02:50:32;;;;;;;35.10;10.73;;;;;;;-146.27;100.00;83276.19;5080789;28;20384;-68
2023/04/01 02:52:57;;;;;;;40.85;11.43;;;;;;;-146.27;100.00;83232.00;5086371;28;20123;-67
2023/04/01 02:55:23;;;;;;;38.13;12.73;;;;;;;-146.27;100.00;83171.72;5088780;28;20031;-67
2023/04/01 02:57:48;;;;;;;45.10;12.88;;;;;;;-146.27;100.00;83155.63;5088698;28;20122;-68
2023/04/01 03:00:14;;;;;;;45.47;12.80;;;;;;;-146.27;100.00;83165.69;5085676;28;20111;-67
2023/04/01 03:02:40;;;;;;;38.42;13.02;;;;;;;-146.27;100.00;83141.56;5084140;28;20039;-68
2023/04/01 03:05:05;;;;;;;44.72;12.55;;;;;;;-146.27;100.00;83169.69;5090213;28;20024;-68
2023/04/01 03:07:31;;;;;;;37.45;13.45;;;;;;;-146.27;100.00;83244.03;5090544;28;20517;-68
2023/04/01 03:09:56;;;;;;;37.55;11.70;;;;;;;-146.27;100.00;83179.75;5084575;28;20044;-68
2023/04/01 03:12:22;;;;;;;31.58;12.70;;;;;;;-146.27;100.00;83135.53;5085724;28;20031;-68
2023/04/01 03:14:47;;;;;;;34.22;12.90;;;;;;;-146.27;100.00;83077.28;5090262;28;20035;-68
2023/04/01 03:17:13;;;;;;;28.48;10.25;;;;;;;-146.27;100.00;83107.41;5082167;28;20384;-68
2023/04/01 03:19:38;;;;;;;30.48;10.65;;;;;;;-146.27;100.00;83189.78;5084065;28;20028;-69
2023/04/01 03:22:03;;;;;;;35.45;10.68;;;;;;;-146.27;100.00;83081.31;5084944;28;20020;-67
2023/04/01 03:24:29;;;;;;;29.65;10.48;;;;;;;-146.27;99.18;83079.28;5087138;28;20031;-68
2023/04/01 03:26:54;;;;;;;32.42;10.75;;;;;;;-146.27;99.87;83123.50;5087332;28;20111;-68
2023/04/01 03:29:19;;;;;;;27.33;11.30;;;;;;;-146.27;99.70;83083.31;5082908;28;20043;-68
2023/04/01 03:31:45;;;;;;;40.47;12.07;;;;;;;-146.27;98.71;83031.06;5086487;28;20060;-68
2023/04/01 03:34:10;;;;;;;34.25;10.88;;;;;;;-146.27;97.83;83043.13;5079557;28;20524;-67
2023/04/01 03:36:36;;;;;;;32.83;10.75;;;;;;;-146.27;97.73;83049.16;5083278;28;20102;-67
2023/04/01 03:39:02;;;;;;;32.85;9.90;;;;;;;-146.27;97.92;83043.13;5088781;28;20044;-68
2023/04/01 03:41:28;;;;;;;28.92;9.77;;;;;;;-146.27;96.92;83000.94;5082770;28;20028;-68
2023/04/01 03:43:53;;;;;;;29.65;10.43;;;;;;;-146.27;97.18;83031.06;5074358;28;20028;-69
2023/04/01 03:46:20;;;;;;;23.63;7.85;;;;;;;-146.27;97.48;83035.09;5082804;28;20028;-68
2023/04/01 03:48:45;;;;;;;20.10;7.57;;;;;;;-146.27;97.81;83008.97;5078939;28;20024;-67
2023/04/01 03:51:11;;;;;;;23.95;8.20;;;;;;;-146.27;97.72;83019.03;5087995;28;20032;-67
2023/04/01 03:53:36;;;;;;;25.73;8.57;;;;;;;-146.27;97.15;83006.97;5090227;28;20027;-68
2023/04/01 03:56:06;;;;;;;24.50;8.70;;;;;;;-146.27;97.84;83015.00;5086677;28;20495;-68
2023/04/01 03:58:31;;;;;;;28.98;9.57;;;;;;;-146.27;97.36;82992.91;5087496;28;20468;-67
2023/04/01 04:00:57;;;;;;;32.63;9.82;;;;;;;-146.27;96.87;82996.91;5087644;28;20035;-68
2023/04/01 04:03:22;;;;;;;33.08;10.75;;;;;;;-146.27;96.83;82996.91;5083843;28;20028;-69
2023/04/01 04:05:49;;;;;;;40.55;12.18;;;;;;;-146.27;97.89;83035.09;5079154;28;20032;-69
2023/04/01 04:08:15;;;;;;;39.15;11.68;;;;;;;-146.27;98.59;83049.16;5089799;28;20054;-69
2023/04/01 04:10:41;;;;;;;37.17;12.73;;;;;;;-146.27;98.41;83063.22;5083524;28;20032;-69
2023/04/01 04:13:07;;;;;;;41.72;13.52;;;;;;;-146.27;97.97;83017.00;5081865;28;20040;-69
2023/04/01 04:15:33;;;;;;;38.00;12.60;;;;;;;-146.27;96.77;82998.94;5078522;28;20020;-69
2023/04/01 04:17:58;;;;;;;41.40;12.85;;;;;;;-146.27;97.45;83053.16;5076880;28;20017;-68
2023/04/01 04:20:24;;;;;;;36.92;11.38;;;;;;;-146.27;97.50;83057.19;5086346;28;20150;-68
2023/04/01 04:22:50;;;;;;;31.17;11.48;;;;;;;-146.27;97.90;83019.03;5082278;28;20028;-68
2023/04/01 04:25:15;;;;;;;30.48;12.52;;;;;;;-146.27;97.78;83055.19;5083019;28;20099;-68
2023/04/01 04:27:40;;;;;;;47.63;12.55;;;;;;;-146.27;98.58;83107.41;5084618;28;20028;-68
2023/04/01 04:30:08;;;;;;;38.70;13.23;;;;;;;-146.27;99.15;83143.59;5081765;28;20026;-68
2023/04/01 04:32:33;;;;;;;33.88;12.18;;;;;;;-146.27;98.88;83133.53;5089367;28;20490;-68
2023/04/01 04:34:58;;;;;;;39.22;13.07;;;;;;;-146.27;99.11;83119.47;5076719;28;20055;-68
2023/04/01 04:37:25;;;;;;;39.72;12.57;;;;;;;-146.27;99.46;83143.59;5076461;28;20016;-69
2023/04/01 04:39:51;;;;;;;34.97;13.32;;;;;;;-146.27;99.51;83135.53;5076027;28;20016;-67
2023/04/01 04:42:17;;;;;;;40.10;15.50;;;;;;;-146.27;99.62;83163.69;5081816;28;20035;-67
2023/04/01 04:44:42;;;;;;;38.03;15.98;;;;;;;-146.27;99.40;83171.72;5078361;28;20024;-67
2023/04/01 04:47:07;;;;;;;47.50;15.25;;;;;;;-146.27;99.11;83067.25;5082735;28;20023;-68
2023/04/01 04:49:33;;;;;;;43.42;14.75;;;;;;;-146.27;99.67;83147.59;5084583;28;20028;-68
2023/04/01 04:51:58;;;;;;;47.00;15.07;;;;;;;-146.27;98.99;83085.31;5082936;28;20476;-68
2023/04/01 04:54:23;;;;;;;49.15;15.65;;;;;;;-146.27;98.20;83051.16;5086355;28;20369;-68
2023/04/01 04:56:51;;;;;;;41.47;14.13;;;;;;;-146.27;98.44;83115.47;5084281;28;20061;-68
2023/04/01 04:59:16;;;;;;;37.63;12.27;;;;;;;-146.27;97.57;83043.13;5078806;28;20042;-68
2023/04/01 05:01:42;;;;;;;37.67;12.85;;;;;;;-146.27;100.00;83207.88;5084753;28;20028;-67
2023/04/01 05:04:07;;;;;;;40.60;13.95;;;;;;;-146.27;99.06;83133.53;5088446;28;20507;-68
2023/04/01 05:06:32;;;;;;;37.90;11.40;;;;;;;-146.27;98.98;83143.59;5089339;28;20357;-68
2023/04/01 05:08:58;;;;;;;48.42;13.68;;;;;;;-146.27;98.40;83123.50;5078628;28;20449;-68
2023/04/01 05:11:23;;;;;;;44.60;11.35;;;;;;;-146.27;98.39;83107.41;5093979;28;20486;-68
2023/04/01 05:13:50;;;;;;;34.95;12.02;;;;;;;-146.27;97.76;83087.31;5088687;28;20030;-69
2023/04/01 05:16:18;;;;;;;44.17;12.52;;;;;;;-146.27;97.56;83099.38;5091882;28;20028;-69
2023/04/01 05:18:43;;;;;;;38.88;12.90;;;;;;;-146.27;97.65;83133.53;5079733;28;20020;-68
2023/04/01 05:21:11;;;;;;;47.22;13.85;;;;;;;-146.27;96.99;83073.25;5088197;28;20349;-68
2023/04/01 05:23:37;;;;;;;47.22;13.35;;;;;;;-146.27;97.19;83101.38;5077046;28;20119;-69
2023/04/01 05:26:08;;;;;;;48.92;14.60;;;;;;;-146.27;97.41;83091.34;5083812;28;20115;-68
2023/04/01 05:28:33;;;;;;;53.83;14.57;;;;;;;-146.27;97.60;83087.31;5080816;28;20056;-67
2023/04/01 05:31:02;;;;;;;42.15;14.60;;;;;;;-146.27;98.23;83119.47;5082934;28;20443;-68
2023/04/01 05:33:29;;;;;;;49.70;14.95;;;;;;;-146.27;97.80;83119.47;5084248;28;20465;-69
2023/04/01 05:35:55;;;;;;;38.00;12.35;;;;;;;-146.27;97.59;83087.31;5089315;28;20429;-68
2023/04/01 05:38:20;;;;;;;38.45;13.07;;;;;;;-146.27;97.22;83067.25;5094517;28;20028;-68
2023/04/01 05:40:46;;;;;;;40.25;13.32;;;;;;;-146.27;97.86;83081.31;5080463;28;20032;-68
2023/04/01 05:43:11;;;;;;;37.45;13.82;;;;;;;-146.27;98.10;83111.44;5086048;28;20074;-69
2023/04/01 05:45:37;;;;;;;41.10;13.38;;;;;;;-146.27;98.14;83131.53;5083868;28;20040;-68
2023/04/01 05:48:03;;;;;;;28.60;12.45;;;;;;;-146.27;99.21;83155.63;5075405;28;20519;-69
2023/04/01 05:50:28;;;;;;;49.72;12.88;;;;;;;-146.27;98.38;83121.47;5088381;28;20035;-69
2023/04/01 05:52:54;;;;;;;36.58;13.20;;;;;;;-146.27;97.96;83119.47;5092406;28;20383;-68
2023/04/01 05:55:20;;;;;;;33.47;13.00;;;;;;;-146.27;98.07;83107.41;5077973;28;20479;-69
2023/04/01 05:57:48;;;;;;;39.00;13.25;;;;;;;-146.27;97.65;83131.53;5090291;28;20036;-68
2023/04/01 06:00:14;;;;;;;41.72;13.55;;;;;;;-146.27;97.40;83113.44;5090177;28;20055;-69
2023/04/01 06:02:41;;;;;;;38.85;13.63;;;;;;;-146.27;98.20;83159.66;5085440;28;20028;-68
2023/04/01 06:05:16;;;;;;;41.25;14.68;;;;;;;-146.27;98.15;83121.47;5091453;28;21976;-68
2023/04/01 06:07:41;;;;;;;32.55;13.15;;;;;;;-146.27;98.23;83123.50;5086707;28;20365;-68
2023/04/01 06:10:15;;;;;;;32.03;13.98;;;;;;;-146.27;98.20;83159.66;5085900;28;20056;-68
2023/04/01 06:13:10;;;;;;;39.95;13.48;;;;;;;-146.27;97.60;83099.38;5076188;28;20032;-74
2023/04/01 06:16:01;;;;;;;27.55;11.88;;;;;;;-146.27;98.17;83149.63;5072088;28;20480;-68
2023/04/01 06:18:56;;;;;;;37.35;15.13;;;;;;;-146.27;96.71;83075.28;5078832;28;20151;-70
2023/04/01 06:21:22;;;;;;;29.25;13.32;;;;;;;-146.27;98.42;83129.53;5089365;28;20031;-71
2023/04/01 06:23:47;;;;;;;36.30;14.18;;;;;;;-146.27;100.00;83173.72;5088838;28;20028;-72
2023/04/01 06:26:16;;;;;;;44.53;14.55;;;;;;;-146.27;99.00;83183.78;5078403;28;20025;-72
2023/04/01 06:29:01;;;;;;;30.75;12.77;;;;;;;-146.27;99.39;83163.69;5082075;28;20058;-73
2023/04/01 06:31:38;;;;;;;29.17;12.77;;;;;;;-146.27;97.74;83075.28;5088748;28;20024;-72
2023/04/01 06:34:55;;;;;;;32.40;11.73;;;;;;;-146.27;97.89;83111.44;5084227;28;20024;-71
2023/04/01 06:37:23;;;;;;;32.08;11.82;;;;;;;-146.27;98.45;83181.75;5058848;28;20131;-72
2023/04/01 06:39:57;;;;;;;48.10;13.68;;;;;;;-146.27;97.77;83103.41;5074057;28;20028;-72
2023/04/01 06:42:41;;;;;;;30.85;10.63;;;;;;;-146.27;99.39;83189.78;5090465;28;20028;-72
2023/04/01 06:45:31;;;;;;;33.75;12.45;;;;;;;-146.27;97.80;83117.47;5088399;28;20048;-72
2023/04/01 06:48:29;;;;;;;38.33;13.13;;;;;;;-146.27;97.58;83133.53;5085853;28;20028;-72
2023/04/01 06:51:03;;;;;;;26.95;13.18;;;;;;;-146.27;97.19;83095.38;5088834;28;20063;-72
2023/04/01 06:53:41;;;;;;;30.10;13.50;;;;;;;-146.27;97.62;83127.50;5086240;28;20028;-72
2023/04/01 06:56:13;;;;;;;29.25;11.93;;;;;;;-146.27;97.61;83143.59;5085238;28;20503;-73
2023/04/01 06:58:51;;;;;;;24.87;12.17;;;;;;;-146.27;97.23;83075.28;5088578;28;20040;-72
2023/04/01 07:01:23;;;;;;;26.67;12.02;;;;;;;-146.27;96.82;83027.06;5084944;28;20110;-71
2023/04/01 07:04:11;;;;;;;25.75;10.73;;;;;;;-146.27;97.78;83079.28;5078547;28;20384;-71
2023/04/01 07:06:51;;;;;;;25.08;9.75;;;;;;;-146.27;97.82;83107.41;5085223;28;20073;-71
2023/04/01 07:09:21;;;;;;;20.60;10.65;;;;;;;-146.27;97.00;83067.25;5083512;28;20530;-72
2023/04/01 07:11:47;;;;;;;22.85;11.20;;;;;;;-146.27;97.13;83055.19;5089727;28;20479;-72
2023/04/01 07:14:28;;;;;;;22.17;10.25;;;;;;;-146.27;98.03;83117.47;5090900;28;20019;-72
2023/04/01 07:17:02;;;;;;;23.00;10.45;;;;;;;-146.27;97.37;83107.41;5089651;28;20024;-72
2023/04/01 07:19:40;;;;;;;24.92;9.52;;;;;;;-146.27;97.44;83093.34;5091532;28;20024;-72
2023/04/01 07:22:32;;;;;;;19.45;10.07;;;;;;;-146.27;96.65;83057.19;5086313;28;20023;-68
2023/04/01 07:25:02;;;;;;;18.67;9.20;;;;;;;-146.27;96.07;83075.28;5080475;28;20111;-67
2023/04/01 07:27:28;;;;;;;21.73;9.75;;;;;;;-146.27;97.13;83117.47;5084276;28;20438;-68
2023/04/01 07:29:57;;;;;;;26.50;9.98;;;;;;;-146.27;97.26;83091.34;5078459;28;20324;-67
2023/04/01 07:32:35;;;;;;;24.70;10.20;;;;;;;-146.27;95.51;83037.09;5092068;28;20108;-67
2023/04/01 07:35:14;;;;;;;25.50;10.07;;;;;;;-146.27;95.47;83045.13;5088114;27;20089;-67
2023/04/01 07:38:04;;;;;;;24.92;10.57;;;;;;;-146.27;95.63;83019.03;5080944;28;20081;-67
2023/04/01 07:41:03;;;;;;;30.20;10.50;;;;;;;-146.27;95.53;82974.81;5081887;28;20796;-67
2023/04/01 07:43:37;;;;;;;26.90;9.85;;;;;;;-146.27;97.62;83087.31;5084626;28;20030;-68
2023/04/01 07:46:22;;;;;;;25.98;10.50;;;;;;;-146.27;96.92;83081.31;5080858;28;20081;-68
2023/04/01 07:48:55;;;;;;;27.05;10.95;;;;;;;-146.27;96.74;83099.38;5078123;28;20024;-68
2023/04/01 07:51:38;;;;;;;28.90;10.63;;;;;;;-146.27;95.89;83047.16;5083274;28;20451;-68
2023/04/01 07:54:16;;;;;;;29.30;11.52;;;;;;;-146.27;96.09;83043.13;5086244;28;20164;-68
2023/04/01 07:57:02;;;;;;;27.30;10.77;;;;;;;-146.27;96.25;83055.19;5079190;28;20036;-68
2023/04/01 07:59:54;;;;;;;30.35;10.30;;;;;;;-146.27;95.52;83067.25;5082613;28;20035;-69
2023/04/01 08:02:29;;;;;;;27.55;10.27;;;;;;;-146.27;94.72;83015.00;5087565;28;20111;-69
2023/04/01 08:05:00;;;;;;;32.40;11.73;;;;;;;-146.27;94.43;83015.00;5078776;28;20467;-69
2023/04/01 08:07:37;;;;;;;20.95;9.27;;;;;;;-146.27;95.03;83039.09;5073448;28;20067;-68
2023/04/01 08:10:14;;;;;;;30.90;11.23;;;;;;;-146.27;95.33;83025.03;5077594;28;20133;-68
2023/04/01 08:12:55;;;;;;;27.55;11.18;;;;;;;-146.27;94.56;82994.91;5085587;28;20035;-68
2023/04/01 08:15:28;;;;;;;30.88;11.23;;;;;;;-146.27;94.99;82956.75;5082344;28;20034;-68
2023/04/01 08:18:37;;;;;;;29.90;11.55;;;;;;;-146.27;94.27;82940.66;5077662;28;20115;-67
2023/04/01 08:21:21;;;;;;;33.92;9.80;;;;;;;-146.27;95.50;83006.97;5089368;28;20032;-68
2023/04/01 08:23:51;;;;;;;26.40;9.82;;;;;;;-146.27;94.43;82994.91;5085070;28;20150;-68
2023/04/01 08:26:46;;;;;;;28.35;10.77;;;;;;;-146.27;93.85;82950.72;5089748;28;20035;-68
2023/04/01 08:29:25;;;;;;;31.27;10.90;;;;;;;-146.27;94.80;82942.66;5086472;28;20036;-66
2023/04/01 08:31:57;;;;;;;23.42;9.80;;;;;;;-146.27;93.71;82978.84;5085541;28;20028;-67
2023/04/01 08:34:46;;;;;;;30.55;10.13;;;;;;;-146.27;94.20;82998.94;5085972;28;20036;-68
2023/04/01 08:37:17;;;;;;;30.67;10.25;;;;;;;-146.27;93.89;82962.75;5089486;28;20028;-67
2023/04/01 08:39:54;;;;;;;33.15;10.48;;;;;;;-146.27;94.02;82978.84;5085714;28;20059;-68
2023/04/01 08:42:48;;;;;;;28.83;10.55;;;;;;;-146.27;94.33;82972.81;5084780;28;20509;-69
2023/04/01 08:45:32;;;;;;;23.50;9.18;;;;;;;-146.27;93.87;82948.69;5083776;28;20110;-68
2023/04/01 08:48:25;;;;;;;29.60;9.73;;;;;;;-146.27;93.99;82922.59;5085816;28;20107;-67
2023/04/01 08:51:34;;;;;;;33.75;9.90;;;;;;;-146.27;93.68;82914.53;5090838;28;20320;-67
2023/04/01 08:54:29;;;;;;;34.13;10.07;;;;;;;-146.27;93.56;82904.50;5081093;28;20024;-68
2023/04/01 08:57:11;;;;;;;31.80;10.60;;;;;;;-146.27;93.71;82954.72;5088520;28;20054;-68
2023/04/01 08:59:54;;;;;;;33.65;10.35;;;;;;;-146.27;93.41;82874.38;5084833;28;20028;-68
2023/04/01 09:02:51;;;;;;;37.22;11.13;;;;;;;-146.27;93.95;82952.72;5081359;28;20491;-69
2023/04/01 09:05:37;;;;;;;34.05;10.75;;;;;;;-146.27;93.35;82922.59;5076389;28;20033;-70
2023/04/01 09:08:30;;;;;;;32.13;9.98;;;;;;;-146.27;93.49;82898.47;5088205;28;20375;-70
2023/04/01 09:11:05;;;;;;;34.28;11.13;;;;;;;-146.27;94.11;82954.72;5083457;28;20040;-70
2023/04/01 09:14:01;;;;;;;22.85;9.63;;;;;;;-146.27;92.89;82914.53;5085693;28;20100;-70
2023/04/01 09:16:45;;;;;;;33.03;10.20;;;;;;;-146.27;93.41;82934.63;5080952;28;20096;-70
2023/04/01 09:19:35;;;;;;;37.58;10.18;;;;;;;-146.27;94.15;82988.88;5089959;28;20024;-69
2023/04/01 09:22:22;;;;;;;28.73;10.45;;;;;;;-146.27;93.81;82954.72;5081555;28;20044;-71
2023/04/01 09:25:29;;;;;;;28.08;8.30;;;;;;;-146.27;93.11;82912.53;5075847;28;20031;-72
2023/04/01 09:28:14;;;;;;;29.48;8.27;;;;;;;-146.27;93.17;82950.72;5093931;28;20047;-73
2023/04/01 09:31:07;;;;;;;17.70;6.10;;;;;;;-146.27;94.02;82918.56;5084891;28;20123;-73
2023/04/01 09:34:00;;;;;;;12.18;4.45;;;;;;;-146.27;94.98;82962.75;5087231;28;20043;-74
2023/04/01 09:36:46;;;;;;;14.35;5.40;;;;;;;-146.27;94.41;82956.75;5090733;28;20515;-74
2023/04/01 09:39:37;;;;;;;11.27;5.75;;;;;;;-146.27;93.79;82882.41;5096836;28;20036;-76
2023/04/01 09:42:07;;;;;;;15.80;5.93;;;;;;;-146.27;93.13;82882.41;5083032;28;20027;-71
2023/04/01 09:45:01;;;;;;;15.30;6.82;;;;;;;-146.27;93.36;82876.38;5087946;28;20047;-75
2023/04/01 09:47:50;;;;;;;20.77;7.83;;;;;;;-146.27;93.17;82896.47;5092230;28;20436;-73
2023/04/01 09:50:43;;;;;;;14.93;7.20;;;;;;;-146.27;93.50;82894.47;5078682;28;20032;-71
2023/04/01 09:53:31;;;;;;;23.08;8.68;;;;;;;-146.27;93.12;82892.44;5081649;28;20032;-69
2023/04/01 09:56:23;;;;;;;23.92;8.95;;;;;;;-146.27;93.45;82942.66;5084028;28;20019;-69
2023/04/01 09:59:03;;;;;;;21.70;8.85;;;;;;;-146.27;92.57;82888.44;5094881;28;20047;-69
2023/04/01 10:01:59;;;;;;;25.88;8.50;;;;;;;-146.27;93.70;82934.63;5091438;28;20073;-68
2023/04/01 10:04:39;;;;;;;26.20;10.02;;;;;;;-146.27;92.88;82870.34;5082535;28;20464;-69
2023/04/01 10:07:31;;;;;;;29.20;10.30;;;;;;;-146.27;93.52;82870.34;5089434;28;20031;-68
2023/04/01 10:10:14;;;;;;;30.70;11.35;;;;;;;-146.27;93.38;82874.38;5084697;28;20039;-69
2023/04/01 10:12:54;;;;;;;29.90;10.18;;;;;;;-146.27;92.90;82910.53;5084044;28;20024;-69
2023/04/01 10:15:35;;;;;;;32.25;10.98;;;;;;;-146.27;92.23;82858.28;5085915;28;20040;-69
2023/04/01 10:18:25;;;;;;;28.23;10.98;;;;;;;-146.27;92.18;82826.16;5084962;28;20479;-69
2023/04/01 10:21:06;;;;;;;20.80;8.65;;;;;;;-146.27;92.76;82842.22;5084522;28;20039;-68
2023/04/01 10:24:05;;;;;;;22.55;8.70;;;;;;;-146.27;92.60;82830.16;5088971;28;20035;-71
2023/04/01 10:27:01;;;;;;;31.58;9.70;;;;;;;-146.27;92.34;82826.16;5082453;28;20035;-71
2023/04/01 10:29:41;;;;;;;32.08;10.55;;;;;;;-146.27;92.07;82860.31;5083652;28;20020;-71
2023/04/01 10:32:16;;;;;;;30.45;10.20;;;;;;;-146.27;92.49;82769.91;5083313;28;20036;-72
2023/04/01 10:35:18;;;;;;;25.10;9.73;;;;;;;-146.27;91.12;82850.25;5086480;28;20062;-72
2023/04/01 10:37:44;;;;;;;22.73;8.65;;;;;;;-146.27;92.03;82816.09;5090522;28;20109;-72
2023/04/01 10:40:38;;;;;;;21.80;9.43;;;;;;;-146.27;92.30;82886.41;5093072;28;20079;-72
2023/04/01 10:43:13;;;;;;;28.02;10.68;;;;;;;-146.27;92.48;82882.41;5110189;28;20027;-72
2023/04/01 10:46:12;;;;;;;24.00;9.20;;;;;;;-146.27;91.97;82866.31;5101210;28;20062;-72
2023/04/01 10:48:44;;;;;;;25.45;9.80;;;;;;;-146.27;92.44;82886.41;5079312;28;20077;-71
2023/04/01 10:51:21;;;;;;;24.63;9.23;;;;;;;-146.27;93.11;82922.59;5093833;28;20089;-72
2023/04/01 10:54:18;;;;;;;19.92;7.43;;;;;;;-146.27;92.20;82900.47;5094193;28;20059;-72
2023/04/01 10:56:48;;;;;;;22.33;7.78;;;;;;;-146.27;92.42;82940.66;5087907;28;20089;-71
2023/04/01 10:59:48;;;;;;;23.45;8.10;;;;;;;-146.27;93.26;82894.47;5078922;28;20034;-72
2023/04/01 11:02:38;;;;;;;23.00;7.90;;;;;;;-146.27;93.36;82886.41;5063538;28;20044;-71
2023/04/01 11:05:22;;;;;;;22.83;8.73;;;;;;;-146.27;92.89;82902.50;5075639;28;20027;-71
2023/04/01 11:07:53;;;;;;;21.25;8.35;;;;;;;-146.27;92.62;82858.28;5078404;28;20030;-71
2023/04/01 11:10:43;;;;;;;19.95;8.13;;;;;;;-146.27;92.15;82858.28;5092012;28;20059;-71
2023/04/01 11:13:27;;;;;;;21.02;9.45;;;;;;;-146.27;91.72;82842.22;5083001;28;20107;-71
2023/04/01 11:16:02;;;;;;;24.40;8.38;;;;;;;-146.27;92.85;82906.50;5091773;28;20032;-71
2023/04/01 11:18:36;;;;;;;20.08;8.85;;;;;;;-146.27;95.18;82944.69;5092059;28;20028;-71
2023/04/01 11:21:20;;;;;;;20.40;8.27;;;;;;;-146.27;94.21;82938.66;5075458;28;20094;-71
2023/04/01 11:23:59;;;;;;;25.83;9.18;;;;;;;-146.27;93.87;82916.56;5077343;28;20024;-71
2023/04/01 11:27:01;;;;;;;19.75;8.98;;;;;;;-146.27;93.58;82890.44;5079398;28;20024;-71
2023/04/01 11:30:06;;;;;;;23.25;8.88;;;;;;;-146.27;92.44;82773.91;5088804;28;20484;-71
2023/04/01 11:32:53;;;;;;;27.20;9.18;;;;;;;-146.27;92.45;82842.22;5052173;28;20067;-70
2023/04/01 11:35:53;;;;;;;21.45;8.57;;;;;;;-146.27;92.22;82834.19;5085101;28;20024;-71
2023/04/01 11:38:52;;;;;;;21.67;7.78;;;;;;;-146.27;91.69;82785.97;5077923;28;20107;-70